createdAt,value
2018-07-21T00:00:12.345Z,6.00
2018-07-21T00:02:46.522Z,6.10
2018-07-21T00:05:26.014Z,6.63
2018-07-21T00:08:00.840Z,6.47
2018-07-21T00:10:35.613Z,6.97
2018-07-21T00:13:09.828Z,7.20
2018-07-21T00:15:44.051Z,6.67
2018-07-21T00:18:18.222Z,6.33
2018-07-21T00:20:52.390Z,6.70
2018-07-21T00:23:27.574Z,6.43
2018-07-21T00:26:01.708Z,6.08
2018-07-21T00:28:36.449Z,6.47
2018-07-21T00:31:11.656Z,6.15
2018-07-21T00:33:45.836Z,6.23
2018-07-21T00:36:20.044Z,6.15
2018-07-21T00:38:54.880Z,6.70
2018-07-21T00:41:29.124Z,6.55
2018-07-21T00:44:03.869Z,6.42
2018-07-21T00:46:39.028Z,6.93
2018-07-21T00:49:13.195Z,6.10
2018-07-21T00:51:48.371Z,6.10
2018-07-21T00:54:22.528Z,5.60
2018-07-21T00:56:56.202Z,5.60
2018-07-21T00:59:30.405Z,5.60
2018-07-21T01:02:05.018Z,5.80
2018-07-21T01:04:39.208Z,5.70
2018-07-21T01:07:13.456Z,6.30
2018-07-21T01:09:47.859Z,6.83
2018-07-21T01:12:22.003Z,7.17
2018-07-21T01:14:56.213Z,7.00
2018-07-21T01:17:30.732Z,6.97
2018-07-21T01:20:05.288Z,6.77
2018-07-21T01:22:39.990Z,6.77
2018-07-21T01:25:15.438Z,6.23
2018-07-21T01:27:49.604Z,6.43
2018-07-21T01:30:23.776Z,5.63
2018-07-21T01:32:57.432Z,5.83
2018-07-21T01:35:31.633Z,6.00
2018-07-21T01:38:05.800Z,6.40
2018-07-21T01:40:40.009Z,5.70
2018-07-21T01:43:14.316Z,5.90
2018-07-21T01:45:49.580Z,5.80
2018-07-21T01:48:23.254Z,6.20
2018-07-21T01:50:57.444Z,6.60
2018-07-21T01:53:32.676Z,5.57
2018-07-21T01:56:07.886Z,5.67
2018-07-21T01:58:42.025Z,6.90
2018-07-21T02:01:16.188Z,5.67
2018-07-21T02:03:50.854Z,6.50
2018-07-21T02:06:26.007Z,5.83
2018-07-21T02:09:00.159Z,6.83
2018-07-21T02:11:34.861Z,7.63
2018-07-21T02:14:10.105Z,6.43
2018-07-21T02:16:44.320Z,9.37
2018-07-21T02:19:18.461Z,6.43
2018-07-21T02:21:52.695Z,5.90
2018-07-21T02:24:27.904Z,4.90
2018-07-21T02:27:02.365Z,5.70
2018-07-21T02:29:36.242Z,5.33
2018-07-21T02:32:10.535Z,5.67
2018-07-21T02:34:44.824Z,6.13
2018-07-21T02:37:19.021Z,5.47
2018-07-21T02:39:53.192Z,6.20
2018-07-21T02:42:26.895Z,6.70
2018-07-21T02:45:00.550Z,6.57
2018-07-21T02:47:34.834Z,7.30
2018-07-21T02:50:09.003Z,7.40
2018-07-21T02:52:44.201Z,6.90
2018-07-21T02:55:18.361Z,8.30
2018-07-21T02:57:52.075Z,7.97
2018-07-21T03:00:25.723Z,7.77
2018-07-21T03:03:00.007Z,8.03
2018-07-21T03:05:34.144Z,7.87
2018-07-21T03:08:08.332Z,7.40
2018-07-21T03:10:42.481Z,7.47
2018-07-21T03:13:16.690Z,7.57
2018-07-21T03:15:50.825Z,7.53
2018-07-21T03:18:26.003Z,8.30
2018-07-21T03:21:01.177Z,8.33
2018-07-21T03:23:36.335Z,8.67
2018-07-21T03:26:10.476Z,7.87
2018-07-21T03:28:44.158Z,9.00
2018-07-21T03:31:18.327Z,8.40
2018-07-21T03:33:52.587Z,9.10
2018-07-21T03:36:44.236Z,8.27
2018-07-21T03:39:18.458Z,8.47
2018-07-21T03:41:52.664Z,7.87
2018-07-21T03:44:27.872Z,7.80
2018-07-21T03:47:02.025Z,6.70
2018-07-21T03:49:36.241Z,6.70
2018-07-21T03:52:10.399Z,7.00
2018-07-21T03:54:45.269Z,6.10
2018-07-21T03:57:19.981Z,7.97
2018-07-21T03:59:54.768Z,7.62
2018-07-21T04:02:29.484Z,8.25
2018-07-21T04:05:03.761Z,6.72
2018-07-21T04:07:38.716Z,5.62
2018-07-21T04:10:13.509Z,6.12
2018-07-21T04:12:49.237Z,6.08
2018-07-21T04:15:23.990Z,5.65
2018-07-21T04:17:58.700Z,5.55
2018-07-21T04:20:33.496Z,6.08
2018-07-21T04:23:08.245Z,5.83
2018-07-21T04:25:42.994Z,5.92
2018-07-21T04:28:17.725Z,5.58
2018-07-21T04:30:52.629Z,6.28
2018-07-21T04:33:27.350Z,5.78
2018-07-21T04:36:03.146Z,6.08
2018-07-21T04:38:37.917Z,7.62
2018-07-21T04:41:12.696Z,7.00
2018-07-21T04:43:47.421Z,5.87
2018-07-21T04:46:22.203Z,6.42
2018-07-21T04:48:56.903Z,6.55
2018-07-21T04:51:31.640Z,6.35
2018-07-21T04:54:05.888Z,5.95
2018-07-21T04:56:40.615Z,6.05
2018-07-21T04:59:16.429Z,6.45
2018-07-21T05:01:51.157Z,5.12
2018-07-21T05:04:25.936Z,4.90
2018-07-21T05:07:00.681Z,5.30
2018-07-21T05:09:36.460Z,5.47
2018-07-21T05:12:11.424Z,5.42
2018-07-21T05:14:46.181Z,5.25
2018-07-21T05:17:20.620Z,5.80
2018-07-21T05:19:54.610Z,5.60
2018-07-21T05:22:29.052Z,5.43
2018-07-21T05:25:03.575Z,5.30
2018-07-21T05:27:38.040Z,4.53
2018-07-21T05:30:12.863Z,4.50
2018-07-21T05:32:47.317Z,5.57
2018-07-21T05:35:22.805Z,5.50
2018-07-21T05:37:57.269Z,5.60
2018-07-21T05:40:31.770Z,4.80
2018-07-21T05:43:06.192Z,4.93
2018-07-21T05:45:40.144Z,3.97
2018-07-21T05:48:14.102Z,5.03
2018-07-21T05:50:48.591Z,4.77
2018-07-21T05:53:22.983Z,4.40
2018-07-21T05:55:57.954Z,4.57
2018-07-21T05:58:32.389Z,3.83
2018-07-21T06:01:06.860Z,3.33
2018-07-21T06:03:41.268Z,3.50
2018-07-21T06:06:15.774Z,3.40
2018-07-21T06:08:50.228Z,3.30
2018-07-21T06:11:24.218Z,3.27
2018-07-21T06:13:58.645Z,3.10
2018-07-21T06:16:32.652Z,2.80
2018-07-21T06:19:06.577Z,2.80
2018-07-21T06:21:42.893Z,2.77
2018-07-21T06:24:17.340Z,2.57
2018-07-21T06:26:51.334Z,2.90
2018-07-21T06:29:25.790Z,3.07
2018-07-21T06:32:00.286Z,2.67
2018-07-21T06:34:34.717Z,3.13
2018-07-21T06:37:08.687Z,2.37
2018-07-21T06:39:43.145Z,2.60
2018-07-21T06:42:17.713Z,2.60
2018-07-21T06:44:52.120Z,2.50
2018-07-21T06:47:27.624Z,2.30
2018-07-21T06:50:02.113Z,2.40
2018-07-21T06:52:36.601Z,2.07
2018-07-21T06:55:14.782Z,2.50
2018-07-21T06:57:49.250Z,2.40
2018-07-21T07:00:23.680Z,2.47
2018-07-21T07:02:58.172Z,2.33
2018-07-21T07:05:32.668Z,2.20
2018-07-21T07:08:07.262Z,2.30
2018-07-21T07:10:42.717Z,2.40
2018-07-21T07:13:17.650Z,2.20
2018-07-21T07:15:52.090Z,2.47
2018-07-21T07:18:26.657Z,2.47
2018-07-21T07:21:01.141Z,2.23
2018-07-21T07:23:35.630Z,2.50
2018-07-21T07:26:10.057Z,2.40
2018-07-21T07:28:44.508Z,2.50
2018-07-21T07:31:18.983Z,2.90
2018-07-21T07:33:52.966Z,3.17
2018-07-21T07:36:27.383Z,2.50
2018-07-21T07:39:01.866Z,2.90
2018-07-21T07:41:36.340Z,2.50
2018-07-21T07:44:10.891Z,2.60
2018-07-21T07:46:45.300Z,2.63
2018-07-21T07:49:19.805Z,3.07
2018-07-21T07:51:54.214Z,2.63
2018-07-21T07:54:28.696Z,2.73
2018-07-21T07:57:03.132Z,2.90
2018-07-21T07:59:37.574Z,3.20
2018-07-21T08:02:13.120Z,3.17
2018-07-21T08:04:47.570Z,2.43
2018-07-21T08:07:22.521Z,2.80
2018-07-21T08:09:56.965Z,2.97
2018-07-21T08:12:31.359Z,2.50
2018-07-21T08:15:05.913Z,2.93
2018-07-21T08:17:40.320Z,3.07
2018-07-21T08:20:14.831Z,2.90
2018-07-21T08:22:49.232Z,2.60
2018-07-21T08:25:23.721Z,3.00
2018-07-21T08:27:57.802Z,3.07
2018-07-21T08:30:32.681Z,2.73
2018-07-21T08:33:07.178Z,2.47
2018-07-21T08:35:42.146Z,2.80
2018-07-21T08:38:20.016Z,2.97
2018-07-21T08:40:55.051Z,2.83
2018-07-21T08:43:28.974Z,3.80
2018-07-21T08:46:03.656Z,2.97
2018-07-21T08:48:38.082Z,2.80
2018-07-21T08:51:12.566Z,2.97
2018-07-21T08:53:47.026Z,3.50
2018-07-21T08:56:21.499Z,2.80
2018-07-21T08:58:55.891Z,2.80
2018-07-21T09:01:30.376Z,2.70
2018-07-21T09:04:04.797Z,2.53
2018-07-21T09:06:40.331Z,2.33
2018-07-21T09:09:15.780Z,3.10
2018-07-21T09:11:50.677Z,2.80
2018-07-21T09:14:26.148Z,2.80
2018-07-21T09:17:00.646Z,2.80
2018-07-21T09:19:35.080Z,2.80
2018-07-21T09:22:09.589Z,2.60
2018-07-21T09:24:44.000Z,3.00
2018-07-21T09:27:18.500Z,2.87
2018-07-21T09:29:52.954Z,2.77
2018-07-21T09:32:27.412Z,2.80
2018-07-21T09:35:01.354Z,2.93
2018-07-21T09:37:35.860Z,2.63
2018-07-21T09:40:10.588Z,2.93
2018-07-21T09:42:45.115Z,2.43
2018-07-21T09:45:19.605Z,2.70
2018-07-21T09:47:54.578Z,2.57
2018-07-21T09:50:29.055Z,2.90
2018-07-21T09:53:03.010Z,2.70
2018-07-21T09:55:37.994Z,2.87
2018-07-21T09:58:12.603Z,2.87
2018-07-21T10:00:52.234Z,2.80
2018-07-21T10:03:27.703Z,3.10
2018-07-21T10:06:02.203Z,3.00
2018-07-21T10:08:36.660Z,3.07
2018-07-21T10:11:11.109Z,2.77
2018-07-21T10:13:45.543Z,3.47
2018-07-21T10:16:19.952Z,3.07
2018-07-21T10:18:54.504Z,3.27
2018-07-21T10:21:28.909Z,3.40
2018-07-21T10:24:08.707Z,3.30
2018-07-21T10:26:48.360Z,3.50
2018-07-21T10:29:22.905Z,4.17
2018-07-21T10:31:57.312Z,3.53
2018-07-21T10:34:31.769Z,3.40
2018-07-21T10:37:07.191Z,3.80
2018-07-21T10:39:41.651Z,3.50
2018-07-21T10:42:16.076Z,4.07
2018-07-21T10:44:50.620Z,3.90
2018-07-21T10:47:25.037Z,3.97
2018-07-21T10:49:59.510Z,3.90
2018-07-21T10:52:38.631Z,3.90
2018-07-21T10:55:13.184Z,3.67
2018-07-21T10:57:47.588Z,4.23
2018-07-21T11:00:22.089Z,3.40
2018-07-21T11:02:57.704Z,3.53
2018-07-21T11:05:33.199Z,3.63
2018-07-21T11:08:07.659Z,3.43
2018-07-21T11:10:42.416Z,3.97
2018-07-21T11:13:20.399Z,3.03
2018-07-21T11:16:10.536Z,3.23
2018-07-21T11:18:49.066Z,3.00
2018-07-21T11:21:28.807Z,3.57
2018-07-21T11:24:07.534Z,3.63
2018-07-21T11:26:42.724Z,3.80
2018-07-21T11:32:01.151Z,3.70
2018-07-21T11:34:36.589Z,3.87
2018-07-21T11:37:53.970Z,4.70
2018-07-21T11:40:38.012Z,4.53
2018-07-21T11:43:19.973Z,4.03
2018-07-21T11:45:54.409Z,4.53
2018-07-21T11:48:29.166Z,4.47
2018-07-21T11:51:03.715Z,3.80
2018-07-21T11:53:49.262Z,4.30
2018-07-21T11:56:29.021Z,3.90
2018-07-21T11:59:06.613Z,3.50
2018-07-21T12:01:41.046Z,3.17
2018-07-21T12:04:15.483Z,3.57
2018-07-21T12:06:51.006Z,4.53
2018-07-21T12:09:26.493Z,4.10
2018-07-21T12:12:01.921Z,3.60
2018-07-21T12:14:46.500Z,3.83
2018-07-21T12:17:26.236Z,3.90
2018-07-21T12:20:01.720Z,3.83
2018-07-21T12:22:36.172Z,3.73
2018-07-21T12:25:10.638Z,4.07
2018-07-21T12:27:46.080Z,4.13
2018-07-21T12:30:20.672Z,3.70
2018-07-21T12:32:55.094Z,4.10
2018-07-21T12:35:29.521Z,3.73
2018-07-21T12:38:03.951Z,3.80
2018-07-21T12:40:38.409Z,4.53
2018-07-21T12:43:13.390Z,3.93
2018-07-21T12:45:47.854Z,4.47
2018-07-21T12:48:22.277Z,4.20
2018-07-21T12:50:56.209Z,4.30
2018-07-21T12:53:30.706Z,4.67
2018-07-21T12:56:04.783Z,4.13
2018-07-21T12:58:39.255Z,4.20
2018-07-21T13:01:13.692Z,4.50
2018-07-21T13:03:48.221Z,4.50
2018-07-21T13:06:22.721Z,4.00
2018-07-21T13:08:57.229Z,4.83
2018-07-21T13:11:31.637Z,4.63
2018-07-21T13:14:06.158Z,4.80
2018-07-21T13:16:40.651Z,4.50
2018-07-21T13:19:15.100Z,4.20
2018-07-21T13:21:49.093Z,4.20
2018-07-21T13:24:24.515Z,4.10
2018-07-21T13:26:59.970Z,4.03
2018-07-21T13:29:34.392Z,4.57
2018-07-21T13:32:08.891Z,4.27
2018-07-21T13:34:43.319Z,4.20
2018-07-21T13:37:18.010Z,4.57
2018-07-21T13:39:53.589Z,4.43
2018-07-21T13:42:29.042Z,4.47
2018-07-21T13:45:03.483Z,4.47
2018-07-21T13:47:37.509Z,4.50
2018-07-21T13:50:12.290Z,4.53
2018-07-21T13:52:46.756Z,4.20
2018-07-21T13:55:21.169Z,4.00
2018-07-21T13:57:55.650Z,4.53
2018-07-21T14:00:30.048Z,4.40
2018-07-21T14:03:04.529Z,4.47
2018-07-21T14:05:38.993Z,4.40
2018-07-21T14:08:13.396Z,4.20
2018-07-21T14:10:48.183Z,4.47
2018-07-21T14:13:22.084Z,4.27
2018-07-21T14:15:56.050Z,4.23
2018-07-21T14:18:30.625Z,4.17
2018-07-21T14:21:05.385Z,4.10
2018-07-21T14:23:40.075Z,4.50
2018-07-21T14:26:14.025Z,4.47
2018-07-21T14:28:48.454Z,4.50
2018-07-21T14:31:23.208Z,4.05
2018-07-21T14:33:57.932Z,4.12
2018-07-21T14:36:33.743Z,4.35
2018-07-21T14:39:10.194Z,4.17
2018-07-21T14:41:45.787Z,4.73
2018-07-21T14:44:20.790Z,3.80
2018-07-21T14:46:55.226Z,4.03
2018-07-21T14:49:29.944Z,3.87
2018-07-21T14:52:04.667Z,3.80
2018-07-21T14:54:39.161Z,4.20
2018-07-21T14:57:15.019Z,4.30
2018-07-21T14:59:49.780Z,4.33
2018-07-21T15:02:24.511Z,3.87
2018-07-21T15:04:59.319Z,4.15
2018-07-21T15:07:33.762Z,3.97
2018-07-21T15:10:08.533Z,3.83
2018-07-21T15:12:42.782Z,4.10
2018-07-21T15:15:17.535Z,4.75
2018-07-21T15:17:52.323Z,4.60
2018-07-21T15:20:27.193Z,4.33
2018-07-21T15:23:01.902Z,4.42
2018-07-21T15:25:37.623Z,4.30
2018-07-21T15:28:12.335Z,4.15
2018-07-21T15:30:46.613Z,4.42
2018-07-21T15:33:21.339Z,4.03
2018-07-21T15:35:56.111Z,4.70
2018-07-21T15:38:30.812Z,4.33
2018-07-21T15:41:05.560Z,4.28
2018-07-21T15:43:41.266Z,4.28
2018-07-21T15:46:16.024Z,4.12
2018-07-21T15:48:50.242Z,4.10
2018-07-21T15:51:24.482Z,4.40
2018-07-21T15:53:59.221Z,3.85
2018-07-21T15:56:33.973Z,3.70
2018-07-21T15:59:08.672Z,4.40
2018-07-21T16:01:43.457Z,4.15
2018-07-21T16:04:17.697Z,4.22
2018-07-21T16:06:52.527Z,4.25
2018-07-21T16:09:27.260Z,4.60
2018-07-21T16:12:02.021Z,4.30
2018-07-21T16:14:36.718Z,4.78
2018-07-21T16:17:11.487Z,4.50
2018-07-21T16:19:46.156Z,4.37
2018-07-21T16:22:22.007Z,4.05
2018-07-21T16:24:56.992Z,4.30
2018-07-21T16:27:32.786Z,4.50
2018-07-21T16:30:08.536Z,4.35
2018-07-21T16:32:43.254Z,4.25
2018-07-21T16:35:17.984Z,3.80
2018-07-21T16:37:52.743Z,4.25
2018-07-21T16:40:27.469Z,4.40
2018-07-21T16:43:02.207Z,5.33
2018-07-21T16:45:36.948Z,3.87
2018-07-21T16:48:12.700Z,4.12
2018-07-21T16:50:48.449Z,3.85
2018-07-21T16:53:24.211Z,3.52
2018-07-21T16:55:58.925Z,3.62
2018-07-21T16:58:33.663Z,4.25
2018-07-21T17:01:08.910Z,4.30
2018-07-21T17:03:43.140Z,4.17
2018-07-21T17:06:17.852Z,4.35
2018-07-21T17:08:52.173Z,3.85
2018-07-21T17:11:26.422Z,4.72
2018-07-21T17:14:01.156Z,3.95
2018-07-21T17:16:36.953Z,4.33
2018-07-21T17:19:11.714Z,4.15
2018-07-21T17:21:46.584Z,3.70
2018-07-21T17:24:21.337Z,4.12
2018-07-21T17:26:56.040Z,4.03
2018-07-21T17:29:31.831Z,4.22
2018-07-21T17:32:06.789Z,4.17
2018-07-21T17:34:41.528Z,3.55
2018-07-21T17:37:16.279Z,4.08
2018-07-21T17:39:50.956Z,4.08
2018-07-21T17:42:25.731Z,3.55
2018-07-21T17:45:00.452Z,4.00
2018-07-21T17:47:35.169Z,4.15
2018-07-21T17:50:09.908Z,3.98
2018-07-21T17:52:44.636Z,3.80
2018-07-21T17:55:19.307Z,3.95
2018-07-21T17:57:54.027Z,4.05
2018-07-21T18:00:29.760Z,4.33
2018-07-21T18:03:04.535Z,4.22
2018-07-21T18:05:39.270Z,4.22
2018-07-21T18:08:15.001Z,3.90
2018-07-21T18:10:50.709Z,4.37
2018-07-21T18:13:24.977Z,4.70
2018-07-21T18:16:00.931Z,4.17
2018-07-21T18:18:35.669Z,4.20
2018-07-21T18:21:10.350Z,4.70
2018-07-21T18:23:45.084Z,4.33
2018-07-21T18:26:19.815Z,4.10
2018-07-21T18:28:54.555Z,4.33
2018-07-21T18:31:29.250Z,4.30
2018-07-21T18:34:05.061Z,4.65
2018-07-21T18:36:39.764Z,4.58
2018-07-21T18:39:14.510Z,4.42
2018-07-21T18:41:49.231Z,4.55
2018-07-21T18:44:25.037Z,4.72
2018-07-21T18:47:00.039Z,4.60
2018-07-21T18:49:35.327Z,4.75
2018-07-21T18:52:10.379Z,4.22
2018-07-21T18:54:45.287Z,4.50
2018-07-21T18:57:20.007Z,4.20
2018-07-21T18:59:54.748Z,4.58
2018-07-21T19:02:29.674Z,4.40
2018-07-21T19:05:04.438Z,4.20
2018-07-21T19:07:40.228Z,5.03
2018-07-21T19:10:14.962Z,5.30
2018-07-21T19:12:51.031Z,9.60
2018-07-21T19:15:31.041Z,12.78
2018-07-21T19:18:05.328Z,9.38
2018-07-21T19:20:46.069Z,7.25
2018-07-21T19:23:20.855Z,6.20
2018-07-21T19:26:00.701Z,6.00
2018-07-21T19:28:34.946Z,5.83
2018-07-21T19:31:09.649Z,5.45
2018-07-21T19:33:45.139Z,5.22
2018-07-21T19:36:21.224Z,5.70
2018-07-21T19:38:55.978Z,5.60
2018-07-21T19:42:03.586Z,5.10
2018-07-21T19:44:38.382Z,6.05
2018-07-21T19:47:13.154Z,5.55
2018-07-21T19:49:49.091Z,5.70
2018-07-21T19:52:23.829Z,6.40
2018-07-21T19:54:59.538Z,5.75
2018-07-21T19:57:34.245Z,5.30
2018-07-21T20:00:08.968Z,5.00
2018-07-21T20:02:43.728Z,5.80
2018-07-21T20:05:17.955Z,6.60
2018-07-21T20:07:52.680Z,6.35
2018-07-21T20:10:27.387Z,5.90
2018-07-21T20:13:02.106Z,5.20
2018-07-21T20:15:36.837Z,5.58
2018-07-21T20:18:11.549Z,6.17
2018-07-21T20:20:46.289Z,5.87
2018-07-21T20:23:21.017Z,5.58
2018-07-21T20:25:56.730Z,5.47
2018-07-21T20:28:31.440Z,5.87
2018-07-21T20:31:06.113Z,5.60
2018-07-21T20:33:41.080Z,5.70
2018-07-21T20:36:15.796Z,5.25
2018-07-21T20:38:50.639Z,5.17
2018-07-21T20:41:26.373Z,9.38
2018-07-21T20:44:01.555Z,6.10
2018-07-21T20:46:36.722Z,5.42
2018-07-21T20:49:10.956Z,6.20
2018-07-21T20:51:45.664Z,6.05
2018-07-21T20:54:19.953Z,5.50
2018-07-21T20:56:54.689Z,6.85
2018-07-21T20:59:29.443Z,8.20
2018-07-21T21:02:04.193Z,8.60
2018-07-21T21:04:38.923Z,6.67
2018-07-21T21:07:13.672Z,7.10
2018-07-21T21:09:48.393Z,7.30
2018-07-21T21:12:23.212Z,7.45
2018-07-21T21:14:58.039Z,6.28
2018-07-21T21:17:32.820Z,6.08
2018-07-21T21:20:07.089Z,6.25
2018-07-21T21:22:41.871Z,6.00
2018-07-21T21:25:17.740Z,5.85
2018-07-21T21:27:52.461Z,6.33
2018-07-21T21:30:27.146Z,6.92
2018-07-21T21:33:02.897Z,6.35
2018-07-21T21:35:37.612Z,6.67
2018-07-21T21:38:12.340Z,6.15
2018-07-21T21:40:48.072Z,6.37
2018-07-21T21:43:22.971Z,7.03
2018-07-21T21:45:57.692Z,6.80
2018-07-21T21:48:32.467Z,7.25
2018-07-21T21:51:07.224Z,8.05
2018-07-21T21:53:43.000Z,9.55
2018-07-21T21:56:17.733Z,8.23
2018-07-21T21:58:52.528Z,9.08
2018-07-21T22:01:27.545Z,9.53
2018-07-21T22:04:02.425Z,9.13
2018-07-21T22:06:37.890Z,8.38
2018-07-21T22:09:12.701Z,8.50
2018-07-21T22:11:47.485Z,7.90
2018-07-21T22:14:22.759Z,7.75
2018-07-21T22:16:57.693Z,7.40
2018-07-21T22:19:32.546Z,7.58
2018-07-21T22:22:07.301Z,7.35
2018-07-21T22:24:42.021Z,7.35
2018-07-21T22:27:16.732Z,7.80
2018-07-21T22:29:51.464Z,7.47
2018-07-21T22:32:26.215Z,8.50
2018-07-21T22:35:00.582Z,7.35
2018-07-21T22:37:35.397Z,7.83
2018-07-21T22:40:10.232Z,7.70
2018-07-21T22:42:45.020Z,7.80
2018-07-21T22:45:19.243Z,6.97
2018-07-21T22:47:54.041Z,7.60
2018-07-21T22:50:29.749Z,7.25
2018-07-21T22:53:05.585Z,6.92
2018-07-21T22:55:40.344Z,7.85
2018-07-21T22:58:16.108Z,7.03
2018-07-21T23:00:50.997Z,9.43
2018-07-21T23:03:25.775Z,8.08
2018-07-21T23:06:01.532Z,8.30
2018-07-21T23:08:37.269Z,8.75
2018-07-21T23:11:13.080Z,8.13
2018-07-21T23:13:47.780Z,9.28
2018-07-21T23:16:23.587Z,8.98
2018-07-21T23:18:58.288Z,9.35
2018-07-21T23:21:33.041Z,9.48
2018-07-21T23:24:07.813Z,8.63
2018-07-21T23:26:42.569Z,8.78
2018-07-21T23:29:17.265Z,9.63
2018-07-21T23:31:52.051Z,9.20
2018-07-21T23:34:26.903Z,8.98
2018-07-21T23:37:01.186Z,9.05
2018-07-21T23:39:36.917Z,9.13
2018-07-21T23:42:11.735Z,9.23
2018-07-21T23:44:46.416Z,8.38
2018-07-21T23:47:21.150Z,8.40
2018-07-21T23:49:55.869Z,9.15
2018-07-21T23:52:31.643Z,7.33
2018-07-21T23:55:08.320Z,7.67
2018-07-21T23:57:43.051Z,7.42
